createdAt,value
2022-09-20T00:01:33.678Z,47.54
2022-09-20T00:04:04.536Z,47.88
2022-09-20T00:06:32.937Z,47.58
2022-09-20T00:09:00.761Z,47.89
2022-09-20T00:11:32.166Z,47.73
2022-09-20T00:14:02.135Z,48.26
2022-09-20T00:16:34.327Z,48.24
2022-09-20T00:19:04.518Z,48.14
2022-09-20T00:21:35.647Z,48.09
2022-09-20T00:24:03.753Z,48.06
2022-09-20T00:26:30.883Z,48.29
2022-09-20T00:28:59.119Z,48.22
2022-09-20T00:31:26.952Z,48.55
2022-09-20T00:33:56.277Z,48.42
2022-09-20T00:36:23.920Z,48.47
2022-09-20T00:39:00.504Z,48.76
2022-09-20T00:41:30.912Z,48.32
2022-09-20T00:43:59.639Z,48.53
2022-09-20T00:46:37.612Z,48.39
2022-09-20T00:49:27.905Z,48.93
2022-09-20T00:52:02.257Z,48.60
2022-09-20T00:54:31.593Z,48.65
2022-09-20T00:56:58.799Z,48.71
2022-09-20T00:59:36.303Z,48.81
2022-09-20T01:02:12.389Z,48.79
2022-09-20T01:04:43.259Z,48.97
2022-09-20T01:07:15.574Z,48.60
2022-09-20T01:09:42.815Z,48.65
2022-09-20T01:12:16.213Z,48.68
2022-09-20T01:14:47.245Z,48.64
2022-09-20T01:17:16.091Z,48.79
2022-09-20T01:20:06.233Z,49.12
2022-09-20T01:23:19.717Z,49.19
2022-09-20T01:26:07.915Z,48.89
2022-09-20T01:28:36.466Z,49.06
2022-09-20T01:31:15.667Z,48.95
2022-09-20T01:34:01.927Z,49.25
2022-09-20T01:36:49.453Z,49.17
2022-09-20T01:39:49.138Z,48.83
2022-09-20T01:42:16.638Z,49.18
2022-09-20T01:45:40.814Z,49.24
2022-09-20T01:48:18.982Z,48.88
2022-09-20T01:51:23.412Z,49.21
2022-09-20T01:54:47.649Z,49.52
2022-09-20T01:57:39.113Z,49.20
2022-09-20T02:00:26.280Z,49.49
2022-09-20T02:03:18.216Z,49.11
2022-09-20T02:06:08.552Z,48.86
2022-09-20T02:09:06.260Z,48.86
2022-09-20T02:12:37.145Z,49.50
2022-09-20T02:15:33.753Z,49.40
2022-09-20T02:18:12.921Z,49.64
2022-09-20T02:21:08.571Z,49.74
2022-09-20T02:24:17.971Z,49.47
2022-09-20T02:27:12.085Z,49.44
2022-09-20T02:30:05.062Z,49.85
2022-09-20T02:33:09.110Z,49.48
2022-09-20T02:36:30.783Z,50.11
2022-09-20T02:39:36.307Z,50.22
2022-09-20T02:42:15.657Z,50.35
2022-09-20T02:45:16.163Z,50.44
2022-09-20T02:47:44.419Z,50.25
2022-09-20T02:51:00.399Z,50.10
2022-09-20T02:54:20.122Z,50.33
2022-09-20T02:57:14.125Z,50.34
2022-09-20T02:59:54.793Z,50.18
2022-09-20T03:02:59.043Z,50.07
2022-09-20T03:06:05.025Z,50.31
2022-09-20T03:08:54.107Z,50.33
2022-09-20T03:12:26.645Z,50.61
2022-09-20T03:15:19.826Z,50.44
2022-09-20T03:18:31.376Z,50.20
2022-09-20T03:21:27.989Z,50.80
2022-09-20T03:24:19.406Z,51.46
2022-09-20T03:27:25.944Z,50.98
2022-09-20T03:30:35.345Z,51.44
2022-09-20T03:33:40.443Z,51.30
2022-09-20T03:36:34.648Z,51.20
2022-09-20T03:39:37.774Z,51.30
2022-09-20T03:42:23.173Z,51.57
2022-09-20T03:45:04.025Z,51.83
2022-09-20T03:48:11.375Z,51.61
2022-09-20T03:51:12.749Z,50.92
2022-09-20T03:53:58.854Z,51.41
2022-09-20T03:56:45.920Z,51.34
2022-09-20T03:59:31.599Z,51.75
2022-09-20T04:02:08.494Z,51.74
2022-09-20T04:04:55.519Z,52.22
2022-09-20T04:07:31.821Z,51.72
2022-09-20T04:10:13.376Z,51.83
2022-09-20T04:12:50.199Z,51.54
2022-09-20T04:15:32.155Z,51.38
2022-09-20T04:18:38.519Z,51.32
2022-09-20T04:21:11.903Z,51.55
2022-09-20T04:23:55.332Z,51.51
2022-09-20T04:26:31.181Z,51.89
2022-09-20T04:29:36.144Z,51.68
2022-09-20T04:32:09.545Z,51.71
2022-09-20T04:34:49.861Z,51.74
2022-09-20T04:37:28.612Z,51.42
2022-09-20T04:40:20.691Z,51.29
2022-09-20T04:42:54.455Z,51.44
2022-09-20T04:45:58.179Z,51.87
2022-09-20T04:48:50.587Z,51.61
2022-09-20T04:51:18.144Z,51.58
2022-09-20T04:54:18.103Z,51.81
2022-09-20T04:57:06.674Z,51.96
2022-09-20T05:00:01.589Z,51.95
2022-09-20T05:03:09.774Z,51.60
2022-09-20T05:05:58.543Z,51.76
2022-09-20T05:08:58.846Z,51.93
2022-09-20T05:11:35.664Z,51.96
2022-09-20T05:14:15.313Z,51.96
2022-09-20T05:17:15.943Z,51.73
2022-09-20T05:19:49.391Z,51.94
2022-09-20T05:22:31.750Z,51.80
2022-09-20T05:25:19.348Z,51.50
2022-09-20T05:27:51.872Z,52.15
2022-09-20T05:30:41.208Z,51.91
2022-09-20T05:33:37.358Z,51.88
2022-09-20T05:36:46.701Z,51.86
2022-09-20T05:39:26.460Z,52.15
2022-09-20T05:42:05.428Z,52.28
2022-09-20T05:45:13.450Z,52.07
2022-09-20T05:47:43.783Z,52.10
2022-09-20T05:50:28.675Z,52.13
2022-09-20T05:53:19.098Z,52.57
2022-09-20T05:56:16.571Z,52.81
2022-09-20T05:58:56.159Z,52.77
2022-09-20T06:01:34.111Z,52.85
2022-09-20T06:04:15.707Z,52.80
2022-09-20T06:07:06.471Z,53.29
2022-09-20T06:09:39.920Z,53.04
2022-09-20T06:12:16.754Z,53.32
2022-09-20T06:15:02.554Z,53.21
2022-09-20T06:17:57.140Z,52.87
2022-09-20T06:20:48.896Z,52.98
2022-09-20T06:23:16.856Z,52.98
2022-09-20T06:26:00.730Z,52.82
2022-09-20T06:28:33.635Z,52.56
2022-09-20T06:31:02.455Z,52.39
2022-09-20T06:33:31.238Z,52.51
2022-09-20T06:36:16.879Z,52.61
2022-09-20T06:39:15.939Z,52.29
2022-09-20T06:41:44.962Z,52.25
2022-09-20T06:44:12.846Z,52.08
2022-09-20T06:46:40.442Z,51.95
2022-09-20T06:49:08.304Z,52.17
2022-09-20T06:51:38.178Z,52.20
2022-09-20T06:54:08.020Z,52.01
2022-09-20T06:56:36.416Z,51.92
2022-09-20T06:59:07.038Z,51.53
2022-09-20T07:01:34.828Z,51.55
2022-09-20T07:04:03.313Z,51.11
2022-09-20T07:06:31.006Z,50.69
2022-09-20T07:08:58.756Z,50.71
2022-09-20T07:11:26.393Z,50.45
2022-09-20T07:13:55.779Z,50.28
2022-09-20T07:16:23.486Z,50.34
2022-09-20T07:18:51.310Z,49.45
2022-09-20T07:21:20.413Z,49.01
2022-09-20T07:23:48.369Z,48.72
2022-09-20T07:26:27.923Z,48.46
2022-09-20T07:28:56.411Z,48.22
2022-09-20T07:31:26.068Z,47.96
2022-09-20T07:33:53.861Z,47.58
2022-09-20T07:36:21.575Z,47.00
2022-09-20T07:38:50.588Z,46.54
2022-09-20T07:41:19.348Z,46.17
2022-09-20T07:43:47.389Z,45.89
2022-09-20T07:46:14.965Z,45.94
2022-09-20T07:48:42.589Z,45.50
2022-09-20T07:51:12.994Z,45.40
2022-09-20T07:53:40.855Z,45.20
2022-09-20T07:56:15.497Z,44.71
2022-09-20T07:58:44.373Z,43.99
2022-09-20T08:01:14.453Z,44.17
2022-09-20T08:03:42.264Z,44.27
2022-09-20T08:06:12.613Z,44.14
2022-09-20T08:08:41.269Z,43.34
2022-09-20T08:11:11.633Z,42.51
2022-09-20T08:14:16.704Z,42.69
2022-09-20T08:16:41.654Z,42.40
2022-09-20T08:19:09.890Z,41.80
2022-09-20T08:21:37.731Z,40.79
2022-09-20T08:24:05.454Z,40.71
2022-09-20T08:26:33.111Z,40.95
2022-09-20T08:29:00.830Z,39.93
2022-09-20T08:31:31.603Z,39.09
2022-09-20T08:33:59.209Z,38.66
2022-09-20T08:36:28.984Z,38.02
2022-09-20T08:42:12.139Z,36.34
2022-09-20T08:44:58.645Z,36.81
2022-09-20T08:47:37.353Z,37.02
2022-09-20T08:50:11.385Z,35.73
2022-09-20T08:52:39.800Z,34.79
2022-09-20T08:55:28.472Z,33.52
2022-09-20T08:58:00.270Z,34.26
2022-09-20T09:00:33.072Z,34.55
2022-09-20T09:03:13.519Z,33.61
2022-09-20T09:05:51.872Z,33.38
2022-09-20T09:08:21.643Z,33.75
2022-09-20T09:10:55.996Z,33.07
2022-09-20T09:13:31.829Z,32.50
2022-09-20T09:16:22.725Z,32.59
2022-09-20T09:18:52.389Z,32.98
2022-09-20T09:21:24.628Z,32.27
2022-09-20T09:24:14.551Z,32.80
2022-09-20T09:26:43.430Z,32.38
2022-09-20T09:29:20.884Z,32.52
2022-09-20T09:31:53.203Z,31.54
2022-09-20T09:34:23.810Z,31.20
2022-09-20T09:36:51.818Z,31.18
2022-09-20T09:39:33.963Z,31.22
2022-09-20T09:42:19.288Z,31.52
2022-09-20T09:44:46.916Z,31.38
2022-09-20T09:47:27.645Z,31.56
2022-09-20T09:50:02.689Z,30.57
2022-09-20T09:52:32.823Z,30.93
2022-09-20T09:55:05.494Z,29.96
2022-09-20T09:58:05.954Z,29.58
2022-09-20T10:00:34.443Z,29.68
2022-09-20T10:03:04.415Z,29.79
2022-09-20T10:05:40.527Z,29.67
2022-09-20T10:09:14.230Z,29.36
2022-09-20T10:11:59.794Z,29.31
2022-09-20T10:15:22.647Z,29.13
2022-09-20T10:18:47.215Z,28.46
2022-09-20T10:21:54.452Z,28.00
2022-09-20T10:25:03.191Z,27.87
2022-09-20T10:27:58.619Z,27.75
2022-09-20T10:31:03.775Z,27.67
2022-09-20T10:34:06.298Z,26.93
2022-09-20T10:37:01.138Z,26.03
2022-09-20T10:39:39.376Z,24.53
2022-09-20T10:42:50.087Z,23.48
2022-09-20T10:46:08.739Z,22.96
2022-09-20T10:49:15.396Z,21.64
2022-09-20T10:52:09.174Z,20.79
2022-09-20T10:55:00.241Z,20.77
2022-09-20T10:58:11.419Z,19.83
2022-09-20T11:01:17.238Z,19.28
2022-09-20T11:04:07.853Z,19.69
2022-09-20T11:06:55.451Z,20.21
2022-09-20T11:09:37.248Z,20.52
2022-09-20T11:12:29.602Z,20.82
2022-09-20T11:15:14.646Z,21.03
2022-09-20T11:17:55.555Z,21.38
2022-09-20T11:20:41.447Z,20.38
2022-09-20T11:23:22.562Z,21.55
2022-09-20T11:25:58.584Z,22.21
2022-09-20T11:28:37.696Z,22.07
2022-09-20T11:31:24.928Z,22.20
2022-09-20T11:34:03.495Z,21.90
2022-09-20T11:36:59.797Z,21.30
2022-09-20T11:39:45.915Z,20.56
2022-09-20T11:42:22.488Z,19.58
2022-09-20T11:44:50.717Z,19.43
2022-09-20T11:47:42.706Z,19.15
2022-09-20T11:50:51.322Z,17.84
2022-09-20T11:53:55.633Z,18.42
2022-09-20T11:56:27.796Z,18.38
2022-09-20T11:59:23.093Z,18.70
2022-09-20T12:01:57.648Z,19.21
2022-09-20T12:04:33.274Z,19.33
2022-09-20T12:07:27.003Z,20.07
2022-09-20T12:10:02.412Z,20.36
2022-09-20T12:12:40.002Z,20.38
2022-09-20T12:15:34.755Z,21.73
2022-09-20T12:18:27.627Z,21.40
2022-09-20T12:21:16.301Z,21.82
2022-09-20T12:24:17.091Z,21.16
2022-09-20T12:26:46.601Z,21.84
2022-09-20T12:29:25.890Z,21.23
2022-09-20T12:32:54.802Z,20.47
2022-09-20T12:35:37.077Z,21.45
2022-09-20T12:38:31.749Z,22.65
2022-09-20T12:41:14.010Z,21.79
2022-09-20T12:44:06.104Z,22.55
2022-09-20T12:46:50.832Z,22.37
2022-09-20T12:49:28.292Z,22.72
2022-09-20T12:51:55.670Z,22.74
2022-09-20T12:54:22.924Z,22.14
2022-09-20T12:56:50.098Z,22.27
2022-09-20T12:59:26.563Z,22.09
2022-09-20T13:01:53.737Z,22.55
2022-09-20T13:04:53.808Z,22.03
2022-09-20T13:07:47.974Z,22.72
2022-09-20T13:10:30.496Z,22.68
2022-09-20T13:13:15.478Z,21.70
2022-09-20T13:15:50.539Z,22.37
2022-09-20T13:18:20.143Z,21.98
2022-09-20T13:20:47.833Z,21.88
2022-09-20T13:23:25.108Z,21.64
2022-09-20T13:25:55.465Z,22.19
2022-09-20T13:28:35.053Z,21.95
2022-09-20T13:31:20.803Z,21.98
2022-09-20T13:33:48.865Z,21.78
2022-09-20T13:36:26.421Z,22.59
2022-09-20T13:38:56.996Z,22.41
2022-09-20T13:41:28.820Z,22.91
2022-09-20T13:43:56.359Z,23.12
2022-09-20T13:46:31.129Z,23.40
2022-09-20T13:49:17.716Z,23.75
2022-09-20T13:51:45.526Z,23.11
2022-09-20T13:54:27.945Z,23.04
2022-09-20T13:57:00.812Z,23.08
2022-09-20T13:59:40.538Z,23.35
2022-09-20T14:02:24.284Z,22.22
2022-09-20T14:04:55.742Z,22.67
2022-09-20T14:07:24.695Z,22.76
2022-09-20T14:09:52.581Z,22.16
2022-09-20T14:12:21.552Z,22.49
2022-09-20T14:14:51.021Z,22.60
2022-09-20T14:17:22.015Z,22.87
2022-09-20T14:19:53.321Z,21.52
2022-09-20T14:22:29.994Z,21.64
2022-09-20T14:25:14.135Z,21.90
2022-09-20T14:27:41.373Z,22.00
2022-09-20T14:30:31.981Z,22.19
2022-09-20T14:33:00.102Z,22.69
2022-09-20T14:35:27.634Z,22.89
2022-09-20T14:38:08.426Z,23.43
2022-09-20T14:40:42.940Z,23.93
2022-09-20T14:43:24.154Z,23.94
2022-09-20T14:46:01.871Z,24.24
2022-09-20T14:48:39.541Z,24.14
2022-09-20T14:51:17.635Z,24.60
2022-09-20T14:54:10.876Z,24.45
2022-09-20T14:56:48.553Z,24.63
2022-09-20T14:59:18.542Z,25.10
2022-09-20T15:02:02.591Z,25.18
2022-09-20T15:04:31.171Z,25.24
2022-09-20T15:07:07.383Z,25.63
2022-09-20T15:09:34.921Z,25.72
2022-09-20T15:12:13.095Z,25.49
2022-09-20T15:14:40.446Z,25.87
2022-09-20T15:19:41.400Z,26.36
2022-09-20T15:22:12.493Z,27.04
2022-09-20T15:24:39.999Z,27.08
2022-09-20T15:27:07.873Z,26.55
2022-09-20T15:29:34.997Z,25.75
2022-09-20T15:32:02.429Z,26.05
2022-09-20T15:34:29.572Z,26.33
2022-09-20T15:36:56.703Z,25.93
2022-09-20T15:39:23.868Z,25.36
2022-09-20T15:41:54.213Z,25.06
2022-09-20T15:44:21.590Z,25.73
2022-09-20T15:46:51.320Z,26.06
2022-09-20T15:49:19.048Z,26.77
2022-09-20T15:51:46.169Z,26.82
2022-09-20T15:54:15.209Z,27.19
2022-09-20T15:56:42.782Z,27.26
2022-09-20T15:59:12.105Z,27.62
2022-09-20T16:01:43.243Z,28.40
2022-09-20T16:04:19.640Z,28.47
2022-09-20T16:06:50.059Z,29.41
2022-09-20T16:09:18.507Z,28.77
2022-09-20T16:11:47.383Z,29.01
2022-09-20T16:14:15.267Z,29.99
2022-09-20T16:16:42.956Z,30.45
2022-09-20T16:19:11.673Z,31.44
2022-09-20T16:21:42.222Z,32.96
2022-09-20T16:24:10.143Z,32.72
2022-09-20T16:26:37.591Z,32.67
2022-09-20T16:29:05.918Z,33.40
2022-09-20T16:31:44.705Z,33.24
2022-09-20T16:34:21.904Z,33.94
2022-09-20T16:36:52.437Z,33.88
2022-09-20T16:39:21.765Z,33.65
2022-09-20T16:41:49.373Z,34.87
2022-09-20T16:44:16.665Z,34.14
2022-09-20T16:46:43.917Z,34.49
2022-09-20T16:49:12.209Z,34.75
2022-09-20T16:51:44.674Z,35.38
2022-09-20T16:54:17.951Z,34.95
2022-09-20T16:56:48.426Z,34.93
2022-09-20T16:59:19.174Z,37.04
2022-09-20T17:01:47.179Z,37.32
2022-09-20T17:04:15.502Z,37.25
2022-09-20T17:06:42.695Z,38.51
2022-09-20T17:09:10.405Z,37.80
2022-09-20T17:11:44.688Z,37.40
2022-09-20T17:14:14.177Z,38.11
2022-09-20T17:16:42.217Z,39.08
2022-09-20T17:19:14.493Z,38.30
2022-09-20T17:21:45.086Z,38.33
2022-09-20T17:24:12.767Z,38.17
2022-09-20T17:26:43.176Z,38.63
2022-09-20T17:29:14.181Z,39.02
2022-09-20T17:31:51.493Z,39.13
2022-09-20T17:34:21.058Z,39.59
2022-09-20T17:36:51.517Z,40.29
2022-09-20T17:39:19.247Z,40.83
2022-09-20T17:41:49.304Z,40.70
2022-09-20T17:44:17.597Z,40.08
2022-09-20T17:46:47.754Z,40.54
2022-09-20T17:49:21.189Z,41.86
2022-09-20T17:51:54.633Z,41.57
2022-09-20T17:54:23.707Z,41.56
2022-09-20T17:56:53.677Z,41.57
2022-09-20T17:59:21.436Z,42.26
2022-09-20T18:01:52.216Z,42.28
2022-09-20T18:04:20.111Z,42.70
2022-09-20T18:06:51.351Z,42.68
2022-09-20T18:09:22.623Z,43.01
2022-09-20T18:11:53.043Z,43.35
2022-09-20T18:14:25.497Z,43.22
2022-09-20T18:16:55.607Z,43.48
2022-09-20T18:19:23.054Z,43.93
2022-09-20T18:21:50.981Z,43.95
2022-09-20T18:24:18.162Z,43.70
2022-09-20T18:26:45.840Z,43.65
2022-09-20T18:29:17.061Z,43.65
2022-09-20T18:31:53.748Z,43.70
2022-09-20T18:34:26.784Z,43.58
2022-09-20T18:36:57.788Z,43.82
2022-09-20T18:39:28.427Z,43.77
2022-09-20T18:41:56.442Z,44.00
2022-09-20T18:44:24.429Z,43.93
2022-09-20T18:46:51.939Z,44.41
2022-09-20T18:49:19.125Z,43.82
2022-09-20T18:51:46.429Z,43.86
2022-09-20T18:54:14.293Z,43.84
2022-09-20T18:56:44.469Z,44.46
2022-09-20T18:59:24.354Z,44.79
2022-09-20T19:02:02.670Z,44.87
2022-09-20T19:05:03.214Z,44.87
2022-09-20T19:08:06.134Z,45.33
2022-09-20T19:10:48.409Z,45.18
2022-09-20T19:14:11.876Z,45.35
2022-09-20T19:16:39.108Z,45.47
2022-09-20T19:19:46.003Z,45.35
2022-09-20T19:22:31.547Z,45.37
2022-09-20T19:25:25.979Z,45.72
2022-09-20T19:27:53.486Z,45.91
2022-09-20T19:30:21.428Z,46.20
2022-09-20T19:32:49.127Z,46.66
2022-09-20T19:35:37.654Z,46.59
2022-09-20T19:38:13.844Z,46.67
2022-09-20T19:41:14.169Z,46.24
2022-09-20T19:43:56.296Z,46.56
2022-09-20T19:47:01.579Z,47.00
2022-09-20T19:50:00.801Z,47.26
2022-09-20T19:52:28.792Z,46.28
2022-09-20T19:54:56.760Z,46.32
2022-09-20T19:57:39.043Z,46.49
2022-09-20T20:00:09.374Z,46.72
2022-09-20T20:02:37.263Z,47.01
2022-09-20T20:05:05.112Z,46.63
2022-09-20T20:07:54.589Z,47.12
2022-09-20T20:10:30.555Z,47.37
2022-09-20T20:13:18.856Z,47.17
2022-09-20T20:15:58.672Z,47.33
2022-09-20T20:19:00.928Z,47.34
2022-09-20T20:21:50.249Z,47.40
2022-09-20T20:24:45.811Z,47.59
2022-09-20T20:27:13.066Z,47.49
2022-09-20T20:29:40.287Z,47.53
2022-09-20T20:32:07.711Z,47.70
2022-09-20T20:34:34.978Z,47.93
2022-09-20T20:37:02.365Z,48.08
2022-09-20T20:39:30.682Z,48.37
2022-09-20T20:42:03.165Z,48.72
2022-09-20T20:44:34.480Z,48.49
2022-09-20T20:47:04.040Z,48.82
2022-09-20T20:49:31.344Z,49.01
2022-09-20T20:51:59.145Z,48.21
2022-09-20T20:54:26.533Z,48.54
2022-09-20T20:56:53.667Z,48.83
2022-09-20T20:59:21.006Z,48.95
2022-09-20T21:01:48.356Z,49.00
2022-09-20T21:04:15.536Z,48.62
2022-09-20T21:06:43.035Z,48.55
2022-09-20T21:09:11.321Z,48.49
2022-09-20T21:11:41.225Z,48.91
2022-09-20T21:14:08.312Z,48.84
2022-09-20T21:16:39.165Z,49.16
2022-09-20T21:19:06.709Z,48.97
2022-09-20T21:21:37.895Z,49.03
2022-09-20T21:24:08.710Z,48.94
2022-09-20T21:26:37.668Z,48.61
2022-09-20T21:29:15.007Z,48.92
2022-09-20T21:31:45.583Z,49.29
2022-09-20T21:34:15.311Z,49.45
2022-09-20T21:36:43.975Z,49.10
2022-09-20T21:39:11.888Z,49.13
2022-09-20T21:41:39.997Z,49.43
2022-09-20T21:44:08.613Z,49.52
2022-09-20T21:46:42.022Z,50.02
2022-09-20T21:49:12.285Z,50.25
2022-09-20T21:51:42.118Z,49.97
2022-09-20T21:54:09.976Z,49.42
2022-09-20T21:56:39.659Z,49.53
2022-09-20T21:59:06.904Z,49.80
2022-09-20T22:01:38.796Z,50.11
2022-09-20T22:04:12.083Z,50.17
2022-09-20T22:06:43.065Z,49.80
2022-09-20T22:09:16.697Z,49.91
2022-09-20T22:11:48.916Z,50.12
2022-09-20T22:14:18.720Z,50.21
2022-09-20T22:16:48.421Z,49.94
2022-09-20T22:19:18.076Z,49.89
2022-09-20T22:21:48.682Z,50.03
2022-09-20T22:24:16.953Z,50.41
2022-09-20T22:26:51.486Z,50.49
2022-09-20T22:29:19.246Z,50.93
2022-09-20T22:31:48.282Z,50.87
2022-09-20T22:34:21.376Z,51.13
2022-09-20T22:36:49.333Z,50.79
2022-09-20T22:39:17.076Z,50.28
2022-09-20T22:41:44.863Z,50.30
2022-09-20T22:44:12.425Z,50.68
2022-09-20T22:46:40.187Z,50.93
2022-09-20T22:49:09.367Z,50.62
2022-09-20T22:51:37.820Z,50.67
2022-09-20T22:54:09.542Z,50.97
2022-09-20T22:56:38.344Z,51.07
2022-09-20T22:59:10.522Z,50.94
2022-09-20T23:01:41.850Z,50.50
2022-09-20T23:04:13.743Z,50.57
2022-09-20T23:06:46.017Z,50.83
2022-09-20T23:09:15.835Z,50.69
2022-09-20T23:11:43.862Z,50.67
2022-09-20T23:14:14.663Z,50.96
2022-09-20T23:16:42.988Z,50.96
2022-09-20T23:19:11.630Z,51.25
2022-09-20T23:21:41.093Z,51.42
2022-09-20T23:24:11.814Z,51.40
2022-09-20T23:26:41.295Z,51.40
2022-09-20T23:29:16.924Z,51.25
2022-09-20T23:31:46.923Z,51.18
2022-09-20T23:34:16.704Z,50.99
2022-09-20T23:36:45.384Z,51.24
2022-09-20T23:39:13.412Z,51.02
2022-09-20T23:41:41.377Z,50.84
2022-09-20T23:44:09.526Z,50.95
2022-09-20T23:46:37.639Z,50.97
2022-09-20T23:49:05.535Z,50.94
2022-09-20T23:51:32.880Z,50.55
2022-09-20T23:54:00.122Z,50.65
2022-09-20T23:56:27.296Z,50.96
2022-09-20T23:58:54.859Z,50.68
